Time,TemperatureF,DewpointF,PressureIn,WindDirection,WindDirectionDegrees,WindSpeedMPH,WindSpeedGustMPH,Humidity,HourlyPrecipIn,Conditions,Clouds,dailyrainin,SoftwareType,DateUTC
2013-01-31 06:01:00,44.0,44.0,30.32,SW,221,0.0,-999.0,99,-99.99,,,-99.99,,2013-01-31 14:01:00,
2013-01-31 06:11:00,44.0,44.0,30.32,SW,221,0.0,-999.0,99,-99.99,,,-99.99,,2013-01-31 14:11:00,
2013-01-31 06:21:00,44.0,44.0,30.32,SW,221,1.0,-999.0,99,-99.99,,,-99.99,,2013-01-31 14:21:00,
2013-01-31 06:31:00,44.0,44.0,30.32,SW,214,0.0,-999.0,99,-99.99,,,-99.99,,2013-01-31 14:31:00,
2013-01-31 06:41:00,44.0,44.0,30.32,SW,214,0.0,-999.0,99,-99.99,,,-99.99,,2013-01-31 14:41:00,
2013-01-31 06:52:00,44.0,44.0,30.31,WSW,237,3.0,-999.0,99,-99.99,,,-99.99,,2013-01-31 14:52:00,
2013-01-31 07:02:00,44.0,44.0,30.32,SW,227,5.0,-999.0,99,-99.99,,,-99.99,,2013-01-31 15:02:00,
2013-01-31 07:11:00,44.0,44.0,30.32,SW,227,5.0,-999.0,99,-99.99,,,-99.99,,2013-01-31 15:11:00,
2013-01-31 07:22:00,44.0,43.0,30.31,SW,225,4.0,-999.0,98,-99.99,,,-99.99,,2013-01-31 15:22:00,
2013-01-31 07:31:00,44.0,43.0,30.30,WSW,241,4.0,-999.0,98,-99.99,,,-99.99,,2013-01-31 15:31:00,
2013-01-31 07:42:00,44.0,43.0,30.30,WSW,241,4.0,-999.0,98,-99.99,,,-99.99,,2013-01-31 15:42:00,
2013-01-31 07:52:00,44.0,43.0,30.31,South,190,2.0,-999.0,98,-99.99,,,-99.99,,2013-01-31 15:52:00,
2013-01-31 08:03:00,44.0,43.0,30.30,SSW,193,3.0,-999.0,98,-99.99,,,-99.99,,2013-01-31 16:03:00,
2013-01-31 08:12:00,44.0,43.0,30.30,SSW,193,3.0,-999.0,98,-99.99,,,-99.99,,2013-01-31 16:12:00,
2013-01-31 08:21:00,45.0,44.0,30.30,South,175,1.0,-999.0,98,-99.99,,,-99.99,,2013-01-31 16:21:00,
2013-01-31 08:32:00,45.0,44.0,30.30,WSW,244,2.0,-999.0,98,-99.99,,,-99.99,,2013-01-31 16:32:00,
2013-01-31 08:41:00,45.0,44.0,30.30,WSW,244,2.0,-999.0,98,-99.99,,,-99.99,,2013-01-31 16:41:00,
2013-01-31 08:52:00,45.0,44.0,30.30,SW,231,6.0,-999.0,97,-99.99,,,-99.99,,2013-01-31 16:52:00,
2013-01-31 09:02:00,45.0,44.0,30.29,SW,218,8.0,-999.0,96,-99.99,,,-99.99,,2013-01-31 17:02:00,
2013-01-31 09:12:00,45.0,44.0,30.29,SW,218,8.0,-999.0,96,-99.99,,,-99.99,,2013-01-31 17:12:00,
2013-01-31 09:32:00,45.0,-99.9,30.29,North,-999,-999.0,-999.0,-999,-99.99,,,-99.99,,2013-01-31 17:32:00,
2013-01-31 09:44:00,45.0,-99.9,30.29,North,-999,-999.0,-999.0,-999,-99.99,,,-99.99,,2013-01-31 17:44:00,
2013-01-31 09:53:00,45.0,44.0,30.29,South,184,8.0,-999.0,96,-99.99,,,-99.99,,2013-01-31 17:53:00,
2013-01-31 10:13:00,45.0,-99.9,30.29,North,-999,-999.0,-999.0,-999,-99.99,,,-99.99,,2013-01-31 18:13:00,
2013-01-31 10:22:00,45.0,-99.9,30.29,North,-999,-999.0,-999.0,-999,-99.99,,,-99.99,,2013-01-31 18:22:00,
2013-01-31 10:31:00,45.0,44.0,30.29,SW,234,12.0,-999.0,97,-99.99,,,-99.99,,2013-01-31 18:31:00,
2013-01-31 10:42:00,45.0,44.0,30.29,SW,234,12.0,-999.0,97,-99.99,,,-99.99,,2013-01-31 18:42:00,
2013-01-31 10:52:00,45.0,44.0,30.29,SW,231,12.0,-999.0,97,-99.99,,,-99.99,,2013-01-31 18:52:00,
2013-01-31 11:02:00,45.0,44.0,30.28,SW,228,15.0,-999.0,97,-99.99,,,-99.99,,2013-01-31 19:02:00,
2013-01-31 11:11:00,45.0,44.0,30.28,SW,228,15.0,-999.0,97,-99.99,,,-99.99,,2013-01-31 19:11:00,
2013-01-31 11:21:00,45.0,44.0,30.28,WSW,239,17.0,-999.0,97,-99.99,,,-99.99,,2013-01-31 19:21:00,
2013-01-31 11:32:00,45.0,44.0,30.28,WSW,240,15.0,-999.0,96,-99.99,,,-99.99,,2013-01-31 19:32:00,
2013-01-31 11:42:00,45.0,44.0,30.28,WSW,240,15.0,-999.0,96,-99.99,,,-99.99,,2013-01-31 19:42:00,
2013-01-31 11:51:00,45.0,44.0,30.28,SSW,202,17.0,-999.0,96,-99.99,,,-99.99,,2013-01-31 19:51:00,
2013-01-31 12:01:00,45.0,44.0,30.27,SW,227,15.0,-999.0,96,-99.99,,,-99.99,,2013-01-31 20:01:00,
2013-01-31 12:11:00,45.0,44.0,30.27,SW,227,15.0,-999.0,96,-99.99,,,-99.99,,2013-01-31 20:11:00,
2013-01-31 12:21:00,45.0,44.0,30.27,SW,223,18.0,-999.0,96,-99.99,,,-99.99,,2013-01-31 20:21:00,
2013-01-31 12:31:00,46.0,45.0,30.26,SW,229,12.0,-999.0,95,-99.99,,,-99.99,,2013-01-31 20:31:00,
2013-01-31 12:41:00,46.0,45.0,30.26,SW,229,12.0,-999.0,95,-99.99,,,-99.99,,2013-01-31 20:41:00,
2013-01-31 12:52:00,46.0,44.0,30.26,WSW,248,16.0,-999.0,94,-99.99,,,-99.99,,2013-01-31 20:52:00,
2013-01-31 13:02:00,46.0,44.0,30.27,WSW,244,16.0,-999.0,93,-99.99,,,-99.99,,2013-01-31 21:02:00,
2013-01-31 13:11:00,46.0,44.0,30.27,WSW,244,16.0,-999.0,93,-99.99,,,-99.99,,2013-01-31 21:11:00,
2013-01-31 13:21:00,46.0,44.0,30.25,SSW,207,16.0,-999.0,93,-99.99,,,-99.99,,2013-01-31 21:21:00,
2013-01-31 13:31:00,46.0,44.0,30.24,SW,223,17.0,-999.0,93,-99.99,,,-99.99,,2013-01-31 21:31:00,
2013-01-31 13:42:00,46.0,44.0,30.24,SW,223,17.0,-999.0,93,-99.99,,,-99.99,,2013-01-31 21:42:00,
2013-01-31 13:51:00,47.0,45.0,30.23,SW,229,13.0,-999.0,93,-99.99,,,-99.99,,2013-01-31 21:51:00,
2013-01-31 14:02:00,47.0,45.0,30.24,SSW,205,13.0,-999.0,93,-99.99,,,-99.99,,2013-01-31 22:02:00,
2013-01-31 14:11:00,47.0,45.0,30.24,SSW,205,13.0,-999.0,93,-99.99,,,-99.99,,2013-01-31 22:11:00,
2013-01-31 14:21:00,47.0,45.0,30.23,SW,229,15.0,-999.0,92,-99.99,,,-99.99,,2013-01-31 22:21:00,
2013-01-31 14:32:00,47.0,45.0,30.24,WSW,240,15.0,-999.0,92,-99.99,,,-99.99,,2013-01-31 22:32:00,
2013-01-31 14:42:00,47.0,45.0,30.24,WSW,240,15.0,-999.0,92,-99.99,,,-99.99,,2013-01-31 22:42:00,
2013-01-31 14:51:00,47.0,45.0,30.23,SW,236,16.0,-999.0,92,-99.99,,,-99.99,,2013-01-31 22:51:00,
2013-01-31 15:02:00,47.0,45.0,30.23,SW,233,14.0,-999.0,92,-99.99,,,-99.99,,2013-01-31 23:02:00,
2013-01-31 15:12:00,47.0,45.0,30.23,SW,233,14.0,-999.0,92,-99.99,,,-99.99,,2013-01-31 23:12:00,
2013-01-31 15:21:00,47.0,45.0,30.23,SW,234,15.0,-999.0,93,-99.99,,,-99.99,,2013-01-31 23:21:00,
2013-01-31 15:31:00,47.0,45.0,30.22,WSW,240,16.0,-999.0,92,-99.99,,,-99.99,,2013-01-31 23:31:00,
2013-01-31 15:41:00,47.0,45.0,30.22,WSW,240,16.0,-999.0,92,-99.99,,,-99.99,,2013-01-31 23:41:00,
2013-01-31 15:52:00,47.0,45.0,30.22,SW,221,19.0,-999.0,92,-99.99,,,-99.99,,2013-01-31 23:52:00,
2013-01-31 16:01:00,47.0,45.0,30.21,SW,217,19.0,-999.0,93,-99.99,,,-99.99,,2013-02-01 00:01:00,
2013-01-31 16:11:00,47.0,45.0,30.21,SW,217,19.0,-999.0,93,-99.99,,,-99.99,,2013-02-01 00:11:00,
2013-01-31 16:21:00,47.0,45.0,30.22,West,261,19.0,-999.0,94,-99.99,,,-99.99,,2013-02-01 00:21:00,
2013-01-31 16:31:00,46.0,44.0,30.22,SW,229,13.0,-999.0,94,-99.99,,,-99.99,,2013-02-01 00:31:00,
2013-01-31 16:42:00,46.0,44.0,30.22,SW,229,13.0,-999.0,94,-99.99,,,-99.99,,2013-02-01 00:42:00,
2013-01-31 16:51:00,46.0,44.0,30.23,WSW,244,9.0,-999.0,94,-99.99,,,-99.99,,2013-02-01 00:51:00,
2013-01-31 17:01:00,46.0,45.0,30.24,West,259,5.0,-999.0,95,-99.99,,,-99.99,,2013-02-01 01:01:00,
2013-01-31 17:11:00,47.0,46.0,30.24,North,5,1.0,-999.0,95,-99.99,,,-99.99,,2013-02-01 01:11:00,
2013-01-31 17:21:00,47.0,46.0,30.24,North,5,1.0,-999.0,95,-99.99,,,-99.99,,2013-02-01 01:21:00,
2013-01-31 17:31:00,46.0,45.0,30.24,SW,234,1.0,-999.0,95,-99.99,,,-99.99,,2013-02-01 01:31:00,
2013-01-31 17:41:00,46.0,45.0,30.24,SW,234,1.0,-999.0,95,-99.99,,,-99.99,,2013-02-01 01:41:00,
2013-01-31 17:51:00,46.0,45.0,30.24,WSW,246,2.0,-999.0,95,-99.99,,,-99.99,,2013-02-01 01:51:00,
2013-01-31 18:01:00,46.0,45.0,30.25,WSW,239,1.0,-999.0,96,-99.99,,,-99.99,,2013-02-01 02:01:00,
2013-01-31 18:11:00,46.0,45.0,30.25,WSW,239,1.0,-999.0,96,-99.99,,,-99.99,,2013-02-01 02:11:00,
2013-01-31 18:21:00,46.0,45.0,30.25,WSW,239,0.0,-999.0,96,-99.99,,,-99.99,,2013-02-01 02:21:00,
2013-01-31 18:31:00,46.0,45.0,30.25,WSW,239,1.0,-999.0,96,-99.99,,,-99.99,,2013-02-01 02:31:00,
2013-01-31 18:41:00,46.0,45.0,30.25,WSW,239,1.0,-999.0,96,-99.99,,,-99.99,,2013-02-01 02:41:00,
2013-01-31 18:52:00,46.0,45.0,30.25,SW,229,2.0,-999.0,96,-99.99,,,-99.99,,2013-02-01 02:52:00,
2013-01-31 19:01:00,46.0,45.0,30.25,SW,229,0.0,-999.0,96,-99.99,,,-99.99,,2013-02-01 03:01:00,
2013-01-31 19:11:00,46.0,45.0,30.25,SW,229,0.0,-999.0,96,-99.99,,,-99.99,,2013-02-01 03:11:00,
2013-01-31 19:21:00,46.0,45.0,30.26,SW,229,0.0,-999.0,96,-99.99,,,-99.99,,2013-02-01 03:21:00,
2013-01-31 19:32:00,46.0,45.0,30.26,SW,229,0.0,-999.0,97,-99.99,,,-99.99,,2013-02-01 03:32:00,
2013-01-31 19:41:00,46.0,45.0,30.26,SW,229,0.0,-999.0,97,-99.99,,,-99.99,,2013-02-01 03:41:00,
2013-01-31 19:51:00,46.0,45.0,30.26,SW,229,2.0,-999.0,97,-99.99,,,-99.99,,2013-02-01 03:51:00,
2013-01-31 20:02:00,46.0,45.0,30.26,SW,229,1.0,-999.0,97,-99.99,,,-99.99,,2013-02-01 04:02:00,
2013-01-31 20:11:00,46.0,45.0,30.26,SW,229,1.0,-999.0,97,-99.99,,,-99.99,,2013-02-01 04:11:00,
2013-01-31 20:21:00,46.0,45.0,30.26,SW,229,2.0,-999.0,98,-99.99,,,-99.99,,2013-02-01 04:21:00,
2013-01-31 20:31:00,46.0,45.0,30.26,SW,229,1.0,-999.0,98,-99.99,,,-99.99,,2013-02-01 04:31:00,
2013-01-31 20:41:00,46.0,45.0,30.26,SW,229,1.0,-999.0,98,-99.99,,,-99.99,,2013-02-01 04:41:00,
2013-01-31 20:51:00,46.0,45.0,30.26,SW,229,2.0,-999.0,98,-99.99,,,-99.99,,2013-02-01 04:51:00,
2013-01-31 21:03:00,46.0,45.0,30.26,SW,229,2.0,-999.0,98,-99.99,,,-99.99,,2013-02-01 05:03:00,
2013-01-31 21:11:00,46.0,45.0,30.26,SW,229,2.0,-999.0,98,-99.99,,,-99.99,,2013-02-01 05:11:00,
2013-01-31 21:22:00,45.0,44.0,30.26,SW,233,4.0,-999.0,98,-99.99,,,-99.99,,2013-02-01 05:22:00,
2013-01-31 21:31:00,45.0,44.0,30.26,SW,225,5.0,-999.0,98,-99.99,,,-99.99,,2013-02-01 05:31:00,
2013-01-31 21:41:00,45.0,44.0,30.26,SW,225,5.0,-999.0,98,-99.99,,,-99.99,,2013-02-01 05:41:00,
2013-01-31 21:52:00,45.0,44.0,30.26,SW,235,4.0,-999.0,98,-99.99,,,-99.99,,2013-02-01 05:52:00,
2013-01-31 22:02:00,45.0,44.0,30.26,SW,235,4.0,-999.0,98,-99.99,,,-99.99,,2013-02-01 06:02:00,
2013-01-31 22:11:00,45.0,44.0,30.26,SW,235,4.0,-999.0,98,-99.99,,,-99.99,,2013-02-01 06:11:00,
2013-01-31 22:21:00,45.0,44.0,30.26,SW,235,0.0,-999.0,98,-99.99,,,-99.99,,2013-02-01 06:21:00,
2013-01-31 22:32:00,44.0,43.0,30.27,SW,235,0.0,-999.0,98,-99.99,,,-99.99,,2013-02-01 06:32:00,
2013-01-31 22:41:00,44.0,43.0,30.27,SW,235,0.0,-999.0,98,-99.99,,,-99.99,,2013-02-01 06:41:00,
2013-01-31 22:52:00,44.0,43.0,30.27,SW,235,0.0,-999.0,98,-99.99,,,-99.99,,2013-02-01 06:52:00,
2013-01-31 23:01:00,44.0,44.0,30.27,SW,235,1.0,-999.0,99,-99.99,,,-99.99,,2013-02-01 07:01:00,
2013-01-31 23:11:00,44.0,44.0,30.27,SW,235,1.0,-999.0,99,-99.99,,,-99.99,,2013-02-01 07:11:00,
2013-01-31 23:21:00,44.0,44.0,30.27,SW,235,0.0,-999.0,99,-99.99,,,-99.99,,2013-02-01 07:21:00,
2013-01-31 23:32:00,44.0,44.0,30.27,SW,235,1.0,-999.0,99,-99.99,,,-99.99,,2013-02-01 07:32:00,
2013-01-31 23:41:00,44.0,44.0,30.27,SW,235,1.0,-999.0,99,-99.99,,,-99.99,,2013-02-01 07:41:00,
2013-01-31 23:51:00,44.0,44.0,30.27,SW,235,0.0,-999.0,99,-99.99,,,-99.99,,2013-02-01 07:51:00,